sensor_id;sensor_type;location;lat;lon;timestamp;P1;durP1;ratioP1;P2;durP2;ratioP2
53875;SDS011;39789;53.216;5.624;2022-09-09T00:00:16;11.68;;;8.13;;
53875;SDS011;39789;53.216;5.624;2022-09-09T00:02:50;14.05;;;9.55;;
53875;SDS011;39789;53.216;5.624;2022-09-09T00:05:41;12.32;;;8.57;;
53875;SDS011;39789;53.216;5.624;2022-09-09T00:08:20;10.77;;;8.23;;
53875;SDS011;39789;53.216;5.624;2022-09-09T00:10:54;14.25;;;9.55;;
53875;SDS011;39789;53.216;5.624;2022-09-09T00:13:44;17.38;;;9.43;;
53875;SDS011;39789;53.216;5.624;2022-09-09T00:16:19;10.25;;;7.97;;
53875;SDS011;39789;53.216;5.624;2022-09-09T00:21:39;11.18;;;7.85;;
53875;SDS011;39789;53.216;5.624;2022-09-09T00:24:24;15.32;;;10.55;;
53875;SDS011;39789;53.216;5.624;2022-09-09T00:27:01;11.70;;;9.27;;
53875;SDS011;39789;53.216;5.624;2022-09-09T00:30:16;13.07;;;9.65;;
53875;SDS011;39789;53.216;5.624;2022-09-09T00:32:28;16.58;;;9.40;;
53875;SDS011;39789;53.216;5.624;2022-09-09T00:34:56;12.00;;;9.52;;
53875;SDS011;39789;53.216;5.624;2022-09-09T00:37:28;13.93;;;9.60;;
53875;SDS011;39789;53.216;5.624;2022-09-09T00:39:57;14.00;;;10.18;;
53875;SDS011;39789;53.216;5.624;2022-09-09T00:42:44;13.55;;;10.10;;
53875;SDS011;39789;53.216;5.624;2022-09-09T00:47:42;12.50;;;8.85;;
53875;SDS011;39789;53.216;5.624;2022-09-09T00:50:15;15.25;;;8.65;;
53875;SDS011;39789;53.216;5.624;2022-09-09T00:58:06;15.20;;;9.65;;
53875;SDS011;39789;53.216;5.624;2022-09-09T01:04:16;13.27;;;9.02;;
53875;SDS011;39789;53.216;5.624;2022-09-09T01:09:22;13.68;;;9.68;;
53875;SDS011;39789;53.216;5.624;2022-09-09T01:11:57;12.98;;;9.50;;
53875;SDS011;39789;53.216;5.624;2022-09-09T01:17:10;13.15;;;9.70;;
53875;SDS011;39789;53.216;5.624;2022-09-09T01:27:51;15.20;;;9.38;;
53875;SDS011;39789;53.216;5.624;2022-09-09T01:30:21;12.88;;;9.38;;
53875;SDS011;39789;53.216;5.624;2022-09-09T01:32:53;13.43;;;8.85;;
53875;SDS011;39789;53.216;5.624;2022-09-09T01:35:32;15.23;;;9.68;;
53875;SDS011;39789;53.216;5.624;2022-09-09T01:38:10;11.98;;;8.38;;
53875;SDS011;39789;53.216;5.624;2022-09-09T01:40:36;11.40;;;8.55;;
53875;SDS011;39789;53.216;5.624;2022-09-09T01:43:02;11.63;;;8.82;;
53875;SDS011;39789;53.216;5.624;2022-09-09T01:45:28;13.95;;;9.30;;
53875;SDS011;39789;53.216;5.624;2022-09-09T01:47:55;13.93;;;9.23;;
53875;SDS011;39789;53.216;5.624;2022-09-09T01:50:21;11.25;;;8.18;;
53875;SDS011;39789;53.216;5.624;2022-09-09T01:52:49;12.88;;;9.43;;
53875;SDS011;39789;53.216;5.624;2022-09-09T01:55:18;12.57;;;8.55;;
53875;SDS011;39789;53.216;5.624;2022-09-09T02:00:34;11.18;;;9.20;;
53875;SDS011;39789;53.216;5.624;2022-09-09T02:03:07;13.60;;;9.20;;
53875;SDS011;39789;53.216;5.624;2022-09-09T02:05:44;9.70;;;8.48;;
53875;SDS011;39789;53.216;5.624;2022-09-09T02:08:17;14.55;;;9.60;;
53875;SDS011;39789;53.216;5.624;2022-09-09T02:13:36;11.25;;;8.63;;
53875;SDS011;39789;53.216;5.624;2022-09-09T02:16:06;12.07;;;8.95;;
53875;SDS011;39789;53.216;5.624;2022-09-09T02:18:41;12.45;;;8.70;;
53875;SDS011;39789;53.216;5.624;2022-09-09T02:21:12;11.27;;;9.45;;
53875;SDS011;39789;53.216;5.624;2022-09-09T02:23:40;12.75;;;8.63;;
53875;SDS011;39789;53.216;5.624;2022-09-09T02:26:08;13.23;;;8.75;;
53875;SDS011;39789;53.216;5.624;2022-09-09T02:28:38;14.02;;;10.05;;
53875;SDS011;39789;53.216;5.624;2022-09-09T02:31:05;10.68;;;9.45;;
53875;SDS011;39789;53.216;5.624;2022-09-09T02:33:33;13.35;;;8.90;;
53875;SDS011;39789;53.216;5.624;2022-09-09T02:36:03;11.80;;;9.48;;
53875;SDS011;39789;53.216;5.624;2022-09-09T02:38:33;12.70;;;8.95;;
53875;SDS011;39789;53.216;5.624;2022-09-09T02:41:02;12.95;;;8.95;;
53875;SDS011;39789;53.216;5.624;2022-09-09T02:43:32;10.70;;;8.82;;
53875;SDS011;39789;53.216;5.624;2022-09-09T02:51:32;15.43;;;10.07;;
53875;SDS011;39789;53.216;5.624;2022-09-09T02:56:56;10.63;;;8.65;;
53875;SDS011;39789;53.216;5.624;2022-09-09T02:59:26;12.38;;;9.50;;
53875;SDS011;39789;53.216;5.624;2022-09-09T03:01:52;10.30;;;8.40;;
53875;SDS011;39789;53.216;5.624;2022-09-09T03:04:18;12.38;;;9.27;;
53875;SDS011;39789;53.216;5.624;2022-09-09T03:06:47;15.73;;;9.20;;
53875;SDS011;39789;53.216;5.624;2022-09-09T03:09:13;15.80;;;9.73;;
53875;SDS011;39789;53.216;5.624;2022-09-09T03:11:38;14.13;;;9.52;;
53875;SDS011;39789;53.216;5.624;2022-09-09T03:14:05;11.60;;;9.48;;
53875;SDS011;39789;53.216;5.624;2022-09-09T03:16:31;13.88;;;9.50;;
53875;SDS011;39789;53.216;5.624;2022-09-09T03:18:58;13.43;;;10.40;;
53875;SDS011;39789;53.216;5.624;2022-09-09T03:21:24;17.45;;;10.95;;
53875;SDS011;39789;53.216;5.624;2022-09-09T03:23:49;17.02;;;10.30;;
53875;SDS011;39789;53.216;5.624;2022-09-09T03:26:15;10.55;;;9.20;;
53875;SDS011;39789;53.216;5.624;2022-09-09T03:28:41;13.90;;;9.45;;
53875;SDS011;39789;53.216;5.624;2022-09-09T03:31:07;12.77;;;9.35;;
53875;SDS011;39789;53.216;5.624;2022-09-09T03:33:35;12.35;;;9.55;;
53875;SDS011;39789;53.216;5.624;2022-09-09T03:36:02;12.43;;;9.02;;
53875;SDS011;39789;53.216;5.624;2022-09-09T03:38:28;11.30;;;9.25;;
53875;SDS011;39789;53.216;5.624;2022-09-09T03:40:54;11.50;;;9.13;;
53875;SDS011;39789;53.216;5.624;2022-09-09T03:43:22;10.25;;;8.60;;
53875;SDS011;39789;53.216;5.624;2022-09-09T03:45:49;11.65;;;9.43;;
53875;SDS011;39789;53.216;5.624;2022-09-09T03:48:18;14.02;;;9.75;;
53875;SDS011;39789;53.216;5.624;2022-09-09T03:50:48;12.95;;;8.82;;
53875;SDS011;39789;53.216;5.624;2022-09-09T03:53:15;12.38;;;9.70;;
53875;SDS011;39789;53.216;5.624;2022-09-09T03:55:46;13.80;;;9.98;;
53875;SDS011;39789;53.216;5.624;2022-09-09T03:58:12;12.50;;;9.55;;
53875;SDS011;39789;53.216;5.624;2022-09-09T04:00:39;11.07;;;9.43;;
53875;SDS011;39789;53.216;5.624;2022-09-09T04:03:09;14.23;;;8.57;;
53875;SDS011;39789;53.216;5.624;2022-09-09T04:05:35;13.80;;;8.73;;
53875;SDS011;39789;53.216;5.624;2022-09-09T04:08:04;12.93;;;9.07;;
53875;SDS011;39789;53.216;5.624;2022-09-09T04:10:33;10.10;;;8.15;;
53875;SDS011;39789;53.216;5.624;2022-09-09T04:13:02;14.35;;;8.90;;
53875;SDS011;39789;53.216;5.624;2022-09-09T04:15:29;12.27;;;9.43;;
53875;SDS011;39789;53.216;5.624;2022-09-09T04:17:55;10.02;;;8.82;;
53875;SDS011;39789;53.216;5.624;2022-09-09T04:20:21;15.05;;;8.40;;
53875;SDS011;39789;53.216;5.624;2022-09-09T04:22:51;11.10;;;8.38;;
53875;SDS011;39789;53.216;5.624;2022-09-09T04:25:16;9.88;;;8.07;;
53875;SDS011;39789;53.216;5.624;2022-09-09T04:27:42;8.35;;;7.22;;
53875;SDS011;39789;53.216;5.624;2022-09-09T04:30:08;12.50;;;7.88;;
53875;SDS011;39789;53.216;5.624;2022-09-09T04:36:15;8.77;;;7.00;;
53875;SDS011;39789;53.216;5.624;2022-09-09T04:38:43;7.55;;;6.38;;
53875;SDS011;39789;53.216;5.624;2022-09-09T04:41:09;8.75;;;6.10;;
53875;SDS011;39789;53.216;5.624;2022-09-09T04:43:36;11.70;;;6.57;;
53875;SDS011;39789;53.216;5.624;2022-09-09T04:46:02;10.70;;;6.38;;
53875;SDS011;39789;53.216;5.624;2022-09-09T04:48:28;9.23;;;6.25;;
53875;SDS011;39789;53.216;5.624;2022-09-09T04:51:05;9.25;;;6.47;;
53875;SDS011;39789;53.216;5.624;2022-09-09T04:53:34;8.98;;;6.35;;
53875;SDS011;39789;53.216;5.624;2022-09-09T04:56:07;11.50;;;6.22;;
53875;SDS011;39789;53.216;5.624;2022-09-09T04:58:35;8.13;;;6.20;;
53875;SDS011;39789;53.216;5.624;2022-09-09T05:01:05;9.07;;;6.40;;
53875;SDS011;39789;53.216;5.624;2022-09-09T05:03:35;9.85;;;6.20;;
53875;SDS011;39789;53.216;5.624;2022-09-09T05:08:34;8.77;;;7.10;;
53875;SDS011;39789;53.216;5.624;2022-09-09T05:11:04;9.40;;;6.57;;
53875;SDS011;39789;53.216;5.624;2022-09-09T05:13:41;11.00;;;6.57;;
53875;SDS011;39789;53.216;5.624;2022-09-09T05:16:06;12.07;;;6.45;;
53875;SDS011;39789;53.216;5.624;2022-09-09T05:18:32;9.85;;;6.85;;
53875;SDS011;39789;53.216;5.624;2022-09-09T05:21:01;8.10;;;6.68;;
53875;SDS011;39789;53.216;5.624;2022-09-09T05:23:26;11.02;;;7.82;;
53875;SDS011;39789;53.216;5.624;2022-09-09T05:25:56;10.07;;;7.18;;
53875;SDS011;39789;53.216;5.624;2022-09-09T05:28:23;9.73;;;7.10;;
53875;SDS011;39789;53.216;5.624;2022-09-09T05:33:28;10.15;;;7.60;;
53875;SDS011;39789;53.216;5.624;2022-09-09T05:35:55;12.32;;;7.80;;
53875;SDS011;39789;53.216;5.624;2022-09-09T05:38:25;9.60;;;6.78;;
53875;SDS011;39789;53.216;5.624;2022-09-09T05:40:51;11.23;;;7.32;;
53875;SDS011;39789;53.216;5.624;2022-09-09T05:43:17;12.48;;;8.43;;
53875;SDS011;39789;53.216;5.624;2022-09-09T05:45:45;13.23;;;7.70;;
53875;SDS011;39789;53.216;5.624;2022-09-09T05:48:12;10.93;;;7.35;;
53875;SDS011;39789;53.216;5.624;2022-09-09T05:50:40;11.50;;;7.97;;
53875;SDS011;39789;53.216;5.624;2022-09-09T05:53:06;10.40;;;7.57;;
53875;SDS011;39789;53.216;5.624;2022-09-09T05:55:31;9.18;;;7.63;;
53875;SDS011;39789;53.216;5.624;2022-09-09T05:57:57;10.00;;;7.78;;
53875;SDS011;39789;53.216;5.624;2022-09-09T06:00:22;11.05;;;7.97;;
53875;SDS011;39789;53.216;5.624;2022-09-09T06:02:51;12.95;;;8.48;;
53875;SDS011;39789;53.216;5.624;2022-09-09T06:05:18;11.52;;;9.07;;
53875;SDS011;39789;53.216;5.624;2022-09-09T06:07:44;12.50;;;10.70;;
53875;SDS011;39789;53.216;5.624;2022-09-09T06:10:10;11.00;;;8.55;;
53875;SDS011;39789;53.216;5.624;2022-09-09T06:12:38;15.45;;;9.50;;
53875;SDS011;39789;53.216;5.624;2022-09-09T06:15:04;11.95;;;9.50;;
53875;SDS011;39789;53.216;5.624;2022-09-09T06:17:37;11.48;;;9.00;;
53875;SDS011;39789;53.216;5.624;2022-09-09T06:20:04;12.65;;;9.27;;
53875;SDS011;39789;53.216;5.624;2022-09-09T06:22:30;13.20;;;9.70;;
53875;SDS011;39789;53.216;5.624;2022-09-09T06:24:56;10.90;;;9.07;;
53875;SDS011;39789;53.216;5.624;2022-09-09T06:27:21;12.65;;;9.68;;
53875;SDS011;39789;53.216;5.624;2022-09-09T06:29:47;11.30;;;9.32;;
53875;SDS011;39789;53.216;5.624;2022-09-09T06:32:13;12.27;;;9.07;;
53875;SDS011;39789;53.216;5.624;2022-09-09T06:34:39;12.52;;;9.32;;
53875;SDS011;39789;53.216;5.624;2022-09-09T06:37:05;11.50;;;8.55;;
53875;SDS011;39789;53.216;5.624;2022-09-09T06:39:31;13.15;;;8.95;;
53875;SDS011;39789;53.216;5.624;2022-09-09T06:41:57;11.02;;;8.85;;
53875;SDS011;39789;53.216;5.624;2022-09-09T06:44:24;10.20;;;9.13;;
53875;SDS011;39789;53.216;5.624;2022-09-09T06:46:51;11.35;;;9.20;;
53875;SDS011;39789;53.216;5.624;2022-09-09T06:49:17;13.73;;;9.85;;
53875;SDS011;39789;53.216;5.624;2022-09-09T06:51:44;16.42;;;9.68;;
53875;SDS011;39789;53.216;5.624;2022-09-09T06:54:10;14.38;;;8.82;;
53875;SDS011;39789;53.216;5.624;2022-09-09T06:56:37;10.02;;;8.75;;
53875;SDS011;39789;53.216;5.624;2022-09-09T06:59:07;11.55;;;8.82;;
53875;SDS011;39789;53.216;5.624;2022-09-09T07:01:43;10.88;;;8.57;;
53875;SDS011;39789;53.216;5.624;2022-09-09T07:04:10;10.82;;;8.00;;
53875;SDS011;39789;53.216;5.624;2022-09-09T07:06:37;12.13;;;8.23;;
53875;SDS011;39789;53.216;5.624;2022-09-09T07:09:06;10.55;;;8.02;;
53875;SDS011;39789;53.216;5.624;2022-09-09T07:11:36;9.10;;;6.72;;
53875;SDS011;39789;53.216;5.624;2022-09-09T07:14:03;10.52;;;7.95;;
53875;SDS011;39789;53.216;5.624;2022-09-09T07:16:29;9.20;;;7.32;;
53875;SDS011;39789;53.216;5.624;2022-09-09T07:18:56;8.43;;;6.78;;
53875;SDS011;39789;53.216;5.624;2022-09-09T07:21:23;11.15;;;7.15;;
53875;SDS011;39789;53.216;5.624;2022-09-09T07:23:51;8.48;;;6.65;;
53875;SDS011;39789;53.216;5.624;2022-09-09T07:26:17;10.57;;;7.03;;
53875;SDS011;39789;53.216;5.624;2022-09-09T07:28:44;10.95;;;6.38;;
53875;SDS011;39789;53.216;5.624;2022-09-09T07:34:34;7.65;;;6.15;;
53875;SDS011;39789;53.216;5.624;2022-09-09T07:37:00;8.20;;;6.32;;
53875;SDS011;39789;53.216;5.624;2022-09-09T07:39:25;9.98;;;6.28;;
53875;SDS011;39789;53.216;5.624;2022-09-09T07:41:51;12.75;;;6.45;;
53875;SDS011;39789;53.216;5.624;2022-09-09T07:44:17;8.40;;;6.22;;
53875;SDS011;39789;53.216;5.624;2022-09-09T07:46:46;8.55;;;6.10;;
53875;SDS011;39789;53.216;5.624;2022-09-09T07:49:12;9.10;;;6.20;;
53875;SDS011;39789;53.216;5.624;2022-09-09T07:51:41;10.27;;;6.40;;
53875;SDS011;39789;53.216;5.624;2022-09-09T07:54:10;8.88;;;6.18;;
53875;SDS011;39789;53.216;5.624;2022-09-09T07:56:38;9.65;;;6.15;;
53875;SDS011;39789;53.216;5.624;2022-09-09T07:59:05;8.30;;;5.65;;
53875;SDS011;39789;53.216;5.624;2022-09-09T08:01:34;9.32;;;5.82;;
53875;SDS011;39789;53.216;5.624;2022-09-09T08:04:05;7.63;;;5.63;;
53875;SDS011;39789;53.216;5.624;2022-09-09T08:06:39;7.28;;;5.72;;
53875;SDS011;39789;53.216;5.624;2022-09-09T08:09:06;6.07;;;5.38;;
53875;SDS011;39789;53.216;5.624;2022-09-09T08:11:33;5.82;;;5.22;;
53875;SDS011;39789;53.216;5.624;2022-09-09T08:17:14;6.35;;;4.85;;
53875;SDS011;39789;53.216;5.624;2022-09-09T08:19:40;6.43;;;5.40;;
53875;SDS011;39789;53.216;5.624;2022-09-09T08:22:05;6.63;;;5.13;;
53875;SDS011;39789;53.216;5.624;2022-09-09T08:24:32;8.25;;;4.63;;
53875;SDS011;39789;53.216;5.624;2022-09-09T08:26:58;10.95;;;4.90;;
53875;SDS011;39789;53.216;5.624;2022-09-09T08:29:24;7.80;;;5.40;;
53875;SDS011;39789;53.216;5.624;2022-09-09T08:31:51;12.13;;;6.28;;
53875;SDS011;39789;53.216;5.624;2022-09-09T08:34:19;10.25;;;5.03;;
53875;SDS011;39789;53.216;5.624;2022-09-09T08:36:46;10.88;;;5.40;;
53875;SDS011;39789;53.216;5.624;2022-09-09T08:39:14;6.72;;;4.68;;
53875;SDS011;39789;53.216;5.624;2022-09-09T08:44:34;10.43;;;6.28;;
53875;SDS011;39789;53.216;5.624;2022-09-09T08:59:20;6.55;;;4.55;;
53875;SDS011;39789;53.216;5.624;2022-09-09T09:07:28;9.32;;;5.05;;
53875;SDS011;39789;53.216;5.624;2022-09-09T09:10:21;8.35;;;5.35;;
53875;SDS011;39789;53.216;5.624;2022-09-09T09:13:04;8.20;;;5.20;;
53875;SDS011;39789;53.216;5.624;2022-09-09T09:15:59;10.68;;;5.43;;
53875;SDS011;39789;53.216;5.624;2022-09-09T09:18:29;7.72;;;5.32;;
53875;SDS011;39789;53.216;5.624;2022-09-09T09:23:56;8.68;;;5.22;;
53875;SDS011;39789;53.216;5.624;2022-09-09T09:26:30;8.35;;;5.38;;
53875;SDS011;39789;53.216;5.624;2022-09-09T09:28:58;8.30;;;5.22;;
53875;SDS011;39789;53.216;5.624;2022-09-09T09:31:25;12.15;;;5.75;;
53875;SDS011;39789;53.216;5.624;2022-09-09T09:33:55;10.15;;;6.13;;
53875;SDS011;39789;53.216;5.624;2022-09-09T09:36:25;8.48;;;4.88;;
53875;SDS011;39789;53.216;5.624;2022-09-09T09:39:04;9.27;;;5.97;;
53875;SDS011;39789;53.216;5.624;2022-09-09T09:44:00;5.25;;;4.43;;
53875;SDS011;39789;53.216;5.624;2022-09-09T09:46:26;7.82;;;4.75;;
53875;SDS011;39789;53.216;5.624;2022-09-09T09:48:56;7.88;;;4.43;;
53875;SDS011;39789;53.216;5.624;2022-09-09T09:51:26;7.80;;;4.50;;
53875;SDS011;39789;53.216;5.624;2022-09-09T09:53:53;9.48;;;4.40;;
53875;SDS011;39789;53.216;5.624;2022-09-09T09:56:26;11.75;;;4.57;;
53875;SDS011;39789;53.216;5.624;2022-09-09T09:58:57;9.27;;;4.07;;
53875;SDS011;39789;53.216;5.624;2022-09-09T10:01:32;8.63;;;4.13;;
53875;SDS011;39789;53.216;5.624;2022-09-09T10:04:00;5.93;;;3.67;;
53875;SDS011;39789;53.216;5.624;2022-09-09T10:06:40;6.35;;;3.70;;
53875;SDS011;39789;53.216;5.624;2022-09-09T10:09:22;6.57;;;3.72;;
53875;SDS011;39789;53.216;5.624;2022-09-09T10:32:37;6.22;;;3.15;;
53875;SDS011;39789;53.216;5.624;2022-09-09T10:35:22;4.70;;;3.42;;
53875;SDS011;39789;53.216;5.624;2022-09-09T10:37:57;5.60;;;2.90;;
53875;SDS011;39789;53.216;5.624;2022-09-09T10:46:17;8.55;;;3.15;;
53875;SDS011;39789;53.216;5.624;2022-09-09T10:51:55;6.03;;;2.90;;
53875;SDS011;39789;53.216;5.624;2022-09-09T10:57:17;6.88;;;3.75;;
53875;SDS011;39789;53.216;5.624;2022-09-09T10:59:57;5.43;;;2.42;;
53875;SDS011;39789;53.216;5.624;2022-09-09T11:02:30;4.53;;;2.70;;
53875;SDS011;39789;53.216;5.624;2022-09-09T11:05:08;6.32;;;3.83;;
53875;SDS011;39789;53.216;5.624;2022-09-09T11:11:00;8.90;;;3.30;;
53875;SDS011;39789;53.216;5.624;2022-09-09T11:13:09;8.07;;;2.97;;
53875;SDS011;39789;53.216;5.624;2022-09-09T11:15:45;7.30;;;3.65;;
53875;SDS011;39789;53.216;5.624;2022-09-09T11:18:19;5.65;;;2.70;;
53875;SDS011;39789;53.216;5.624;2022-09-09T11:20:50;6.47;;;3.20;;
53875;SDS011;39789;53.216;5.624;2022-09-09T11:23:25;10.13;;;2.55;;
53875;SDS011;39789;53.216;5.624;2022-09-09T11:25:59;5.43;;;2.50;;
53875;SDS011;39789;53.216;5.624;2022-09-09T11:28:45;7.43;;;2.67;;
53875;SDS011;39789;53.216;5.624;2022-09-09T11:34:44;6.22;;;2.97;;
53875;SDS011;39789;53.216;5.624;2022-09-09T11:42:32;6.88;;;2.88;;
53875;SDS011;39789;53.216;5.624;2022-09-09T11:45:11;6.20;;;3.03;;
53875;SDS011;39789;53.216;5.624;2022-09-09T11:47:54;6.43;;;3.15;;
53875;SDS011;39789;53.216;5.624;2022-09-09T11:52:47;5.35;;;2.83;;
53875;SDS011;39789;53.216;5.624;2022-09-09T11:58:05;7.28;;;2.50;;
53875;SDS011;39789;53.216;5.624;2022-09-09T12:00:44;7.15;;;2.95;;
53875;SDS011;39789;53.216;5.624;2022-09-09T12:05:56;8.13;;;2.60;;
53875;SDS011;39789;53.216;5.624;2022-09-09T12:08:26;5.82;;;2.75;;
53875;SDS011;39789;53.216;5.624;2022-09-09T12:10:57;7.88;;;2.80;;
53875;SDS011;39789;53.216;5.624;2022-09-09T12:13:25;9.95;;;2.85;;
53875;SDS011;39789;53.216;5.624;2022-09-09T12:15:52;4.18;;;2.70;;
53875;SDS011;39789;53.216;5.624;2022-09-09T12:18:35;6.63;;;3.20;;
53875;SDS011;39789;53.216;5.624;2022-09-09T12:24:07;5.05;;;2.78;;
53875;SDS011;39789;53.216;5.624;2022-09-09T12:27:23;9.25;;;3.20;;
53875;SDS011;39789;53.216;5.624;2022-09-09T12:32:24;4.72;;;2.85;;
53875;SDS011;39789;53.216;5.624;2022-09-09T12:34:54;5.72;;;3.10;;
53875;SDS011;39789;53.216;5.624;2022-09-09T12:39:55;5.53;;;2.58;;
53875;SDS011;39789;53.216;5.624;2022-09-09T12:42:22;9.07;;;2.58;;
53875;SDS011;39789;53.216;5.624;2022-09-09T12:44:52;6.18;;;3.13;;
53875;SDS011;39789;53.216;5.624;2022-09-09T12:50:24;6.70;;;2.50;;
53875;SDS011;39789;53.216;5.624;2022-09-09T12:53:40;7.57;;;2.33;;
53875;SDS011;39789;53.216;5.624;2022-09-09T12:55:51;5.25;;;2.70;;
53875;SDS011;39789;53.216;5.624;2022-09-09T12:58:28;6.68;;;2.80;;
53875;SDS011;39789;53.216;5.624;2022-09-09T13:00:58;5.95;;;2.13;;
53875;SDS011;39789;53.216;5.624;2022-09-09T13:03:25;7.75;;;3.10;;
53875;SDS011;39789;53.216;5.624;2022-09-09T13:05:51;8.52;;;3.05;;
53875;SDS011;39789;53.216;5.624;2022-09-09T13:08:18;7.18;;;2.67;;
53875;SDS011;39789;53.216;5.624;2022-09-09T13:10:52;5.45;;;2.47;;
53875;SDS011;39789;53.216;5.624;2022-09-09T13:13:23;8.88;;;2.90;;
53875;SDS011;39789;53.216;5.624;2022-09-09T13:15:56;7.03;;;2.97;;
53875;SDS011;39789;53.216;5.624;2022-09-09T13:18:42;6.45;;;2.50;;
53875;SDS011;39789;53.216;5.624;2022-09-09T13:23:36;4.70;;;2.47;;
53875;SDS011;39789;53.216;5.624;2022-09-09T13:26:06;5.05;;;2.75;;
53875;SDS011;39789;53.216;5.624;2022-09-09T13:28:48;5.40;;;2.50;;
53875;SDS011;39789;53.216;5.624;2022-09-09T13:31:21;6.75;;;2.42;;
53875;SDS011;39789;53.216;5.624;2022-09-09T13:33:54;4.13;;;2.42;;
53875;SDS011;39789;53.216;5.624;2022-09-09T13:36:27;3.90;;;2.38;;
53875;SDS011;39789;53.216;5.624;2022-09-09T13:38:56;4.43;;;2.15;;
53875;SDS011;39789;53.216;5.624;2022-09-09T13:41:31;3.67;;;2.42;;
53875;SDS011;39789;53.216;5.624;2022-09-09T13:43:59;6.13;;;2.30;;
53875;SDS011;39789;53.216;5.624;2022-09-09T13:46:37;3.35;;;2.25;;
53875;SDS011;39789;53.216;5.624;2022-09-09T13:51:45;4.35;;;2.30;;
53875;SDS011;39789;53.216;5.624;2022-09-09T13:54:14;2.75;;;1.40;;
53875;SDS011;39789;53.216;5.624;2022-09-09T13:56:41;1.38;;;1.20;;
53875;SDS011;39789;53.216;5.624;2022-09-09T13:59:12;1.65;;;1.00;;
53875;SDS011;39789;53.216;5.624;2022-09-09T14:01:39;2.40;;;1.40;;
53875;SDS011;39789;53.216;5.624;2022-09-09T14:04:06;3.03;;;1.48;;
53875;SDS011;39789;53.216;5.624;2022-09-09T14:06:32;1.60;;;1.45;;
53875;SDS011;39789;53.216;5.624;2022-09-09T14:09:02;3.50;;;2.33;;
53875;SDS011;39789;53.216;5.624;2022-09-09T14:11:27;4.68;;;3.05;;
53875;SDS011;39789;53.216;5.624;2022-09-09T14:13:53;9.10;;;3.95;;
53875;SDS011;39789;53.216;5.624;2022-09-09T14:16:19;5.13;;;3.20;;
53875;SDS011;39789;53.216;5.624;2022-09-09T14:18:46;5.30;;;3.40;;
53875;SDS011;39789;53.216;5.624;2022-09-09T14:21:12;9.32;;;2.90;;
53875;SDS011;39789;53.216;5.624;2022-09-09T14:23:38;4.85;;;2.78;;
53875;SDS011;39789;53.216;5.624;2022-09-09T14:26:04;8.52;;;3.20;;
53875;SDS011;39789;53.216;5.624;2022-09-09T14:28:31;6.65;;;2.55;;
53875;SDS011;39789;53.216;5.624;2022-09-09T14:30:59;7.15;;;2.92;;
53875;SDS011;39789;53.216;5.624;2022-09-09T14:33:26;6.95;;;2.67;;
53875;SDS011;39789;53.216;5.624;2022-09-09T14:35:57;5.80;;;2.28;;
53875;SDS011;39789;53.216;5.624;2022-09-09T14:38:24;4.00;;;2.20;;
53875;SDS011;39789;53.216;5.624;2022-09-09T14:40:53;6.20;;;2.25;;
53875;SDS011;39789;53.216;5.624;2022-09-09T14:43:18;4.03;;;2.00;;
53875;SDS011;39789;53.216;5.624;2022-09-09T14:45:45;5.28;;;2.22;;
53875;SDS011;39789;53.216;5.624;2022-09-09T14:48:12;4.78;;;2.70;;
53875;SDS011;39789;53.216;5.624;2022-09-09T14:50:39;9.98;;;2.15;;
53875;SDS011;39789;53.216;5.624;2022-09-09T14:53:07;3.13;;;2.00;;
53875;SDS011;39789;53.216;5.624;2022-09-09T14:55:33;4.43;;;2.10;;
53875;SDS011;39789;53.216;5.624;2022-09-09T14:58:00;5.57;;;2.40;;
53875;SDS011;39789;53.216;5.624;2022-09-09T15:00:25;2.97;;;1.98;;
53875;SDS011;39789;53.216;5.624;2022-09-09T15:02:53;4.93;;;2.72;;
53875;SDS011;39789;53.216;5.624;2022-09-09T15:05:19;6.88;;;2.95;;
53875;SDS011;39789;53.216;5.624;2022-09-09T15:07:46;4.63;;;2.75;;
53875;SDS011;39789;53.216;5.624;2022-09-09T15:10:13;4.10;;;3.10;;
53875;SDS011;39789;53.216;5.624;2022-09-09T15:12:39;5.65;;;3.45;;
53875;SDS011;39789;53.216;5.624;2022-09-09T15:18:45;2.72;;;2.20;;
53875;SDS011;39789;53.216;5.624;2022-09-09T15:21:16;4.28;;;2.05;;
53875;SDS011;39789;53.216;5.624;2022-09-09T15:23:44;3.30;;;2.13;;
53875;SDS011;39789;53.216;5.624;2022-09-09T15:26:10;3.03;;;2.00;;
53875;SDS011;39789;53.216;5.624;2022-09-09T15:28:39;3.60;;;2.72;;
53875;SDS011;39789;53.216;5.624;2022-09-09T15:33:33;4.53;;;2.40;;
53875;SDS011;39789;53.216;5.624;2022-09-09T15:35:59;3.25;;;2.42;;
53875;SDS011;39789;53.216;5.624;2022-09-09T15:38:24;3.63;;;2.28;;
53875;SDS011;39789;53.216;5.624;2022-09-09T15:44:37;3.72;;;2.25;;
53875;SDS011;39789;53.216;5.624;2022-09-09T15:47:04;5.38;;;2.92;;
53875;SDS011;39789;53.216;5.624;2022-09-09T15:49:30;3.90;;;2.78;;
53875;SDS011;39789;53.216;5.624;2022-09-09T15:51:57;6.72;;;3.22;;
53875;SDS011;39789;53.216;5.624;2022-09-09T15:54:24;4.70;;;2.40;;
53875;SDS011;39789;53.216;5.624;2022-09-09T15:56:52;3.88;;;2.60;;
53875;SDS011;39789;53.216;5.624;2022-09-09T15:59:21;5.32;;;2.90;;
53875;SDS011;39789;53.216;5.624;2022-09-09T16:01:48;6.32;;;3.03;;
53875;SDS011;39789;53.216;5.624;2022-09-09T16:04:16;8.63;;;3.20;;
53875;SDS011;39789;53.216;5.624;2022-09-09T16:06:48;6.50;;;3.97;;
53875;SDS011;39789;53.216;5.624;2022-09-09T16:09:18;6.38;;;4.18;;
53875;SDS011;39789;53.216;5.624;2022-09-09T16:11:44;6.40;;;3.90;;
53875;SDS011;39789;53.216;5.624;2022-09-09T16:14:11;6.72;;;3.75;;
53875;SDS011;39789;53.216;5.624;2022-09-09T16:16:38;8.35;;;4.55;;
53875;SDS011;39789;53.216;5.624;2022-09-09T16:19:07;5.80;;;2.22;;
53875;SDS011;39789;53.216;5.624;2022-09-09T16:21:44;4.30;;;2.05;;
53875;SDS011;39789;53.216;5.624;2022-09-09T16:24:12;3.45;;;1.35;;
53875;SDS011;39789;53.216;5.624;2022-09-09T16:26:44;3.33;;;1.40;;
53875;SDS011;39789;53.216;5.624;2022-09-09T16:29:15;2.97;;;1.40;;
53875;SDS011;39789;53.216;5.624;2022-09-09T16:31:42;5.32;;;2.17;;
53875;SDS011;39789;53.216;5.624;2022-09-09T16:34:09;4.72;;;2.10;;
53875;SDS011;39789;53.216;5.624;2022-09-09T16:36:35;4.85;;;2.60;;
53875;SDS011;39789;53.216;5.624;2022-09-09T16:39:05;2.80;;;1.90;;
53875;SDS011;39789;53.216;5.624;2022-09-09T16:41:34;2.95;;;2.40;;
53875;SDS011;39789;53.216;5.624;2022-09-09T16:44:00;4.80;;;2.55;;
53875;SDS011;39789;53.216;5.624;2022-09-09T16:46:29;4.10;;;2.40;;
53875;SDS011;39789;53.216;5.624;2022-09-09T16:48:56;3.13;;;1.98;;
53875;SDS011;39789;53.216;5.624;2022-09-09T16:51:25;3.33;;;2.17;;
53875;SDS011;39789;53.216;5.624;2022-09-09T16:53:53;2.20;;;1.67;;
53875;SDS011;39789;53.216;5.624;2022-09-09T16:56:23;2.15;;;1.80;;
53875;SDS011;39789;53.216;5.624;2022-09-09T16:58:55;3.70;;;2.20;;
53875;SDS011;39789;53.216;5.624;2022-09-09T17:01:22;4.70;;;3.00;;
53875;SDS011;39789;53.216;5.624;2022-09-09T17:03:53;4.15;;;3.35;;
53875;SDS011;39789;53.216;5.624;2022-09-09T17:06:20;6.22;;;3.22;;
53875;SDS011;39789;53.216;5.624;2022-09-09T17:08:46;6.25;;;3.22;;
53875;SDS011;39789;53.216;5.624;2022-09-09T17:13:44;7.82;;;3.38;;
53875;SDS011;39789;53.216;5.624;2022-09-09T17:16:11;4.95;;;3.28;;
53875;SDS011;39789;53.216;5.624;2022-09-09T17:18:38;6.90;;;3.17;;
53875;SDS011;39789;53.216;5.624;2022-09-09T17:21:04;3.63;;;2.70;;
53875;SDS011;39789;53.216;5.624;2022-09-09T17:23:33;4.65;;;3.00;;
53875;SDS011;39789;53.216;5.624;2022-09-09T17:26:03;3.20;;;2.50;;
53875;SDS011;39789;53.216;5.624;2022-09-09T17:28:30;4.57;;;3.25;;
53875;SDS011;39789;53.216;5.624;2022-09-09T17:30:59;4.80;;;3.03;;
53875;SDS011;39789;53.216;5.624;2022-09-09T17:33:28;7.35;;;2.75;;
53875;SDS011;39789;53.216;5.624;2022-09-09T17:35:58;6.50;;;3.10;;
53875;SDS011;39789;53.216;5.624;2022-09-09T17:38:31;6.70;;;2.70;;